sensor_id;sensor_type;location;lat;lon;timestamp;P1;durP1;ratioP1;P2;durP2;ratioP2
7203;SDS011;3643;52.460;13.322;2023-04-15T00:01:16;114.40;;;35.13;;
7203;SDS011;3643;52.460;13.322;2023-04-15T00:03:46;106.50;;;36.53;;
7203;SDS011;3643;52.460;13.322;2023-04-15T00:06:15;102.10;;;33.87;;
7203;SDS011;3643;52.460;13.322;2023-04-15T00:08:45;112.47;;;34.80;;
7203;SDS011;3643;52.460;13.322;2023-04-15T00:11:15;106.60;;;35.97;;
7203;SDS011;3643;52.460;13.322;2023-04-15T00:13:45;132.07;;;37.83;;
7203;SDS011;3643;52.460;13.322;2023-04-15T00:16:15;130.33;;;39.63;;
7203;SDS011;3643;52.460;13.322;2023-04-15T00:18:43;128.00;;;39.70;;
7203;SDS011;3643;52.460;13.322;2023-04-15T00:21:12;112.43;;;37.93;;
7203;SDS011;3643;52.460;13.322;2023-04-15T00:23:41;123.53;;;36.83;;
7203;SDS011;3643;52.460;13.322;2023-04-15T00:26:10;115.70;;;37.83;;
7203;SDS011;3643;52.460;13.322;2023-04-15T00:28:41;118.43;;;39.57;;
7203;SDS011;3643;52.460;13.322;2023-04-15T00:31:10;125.43;;;38.83;;
7203;SDS011;3643;52.460;13.322;2023-04-15T00:33:39;157.73;;;43.00;;
7203;SDS011;3643;52.460;13.322;2023-04-15T00:36:07;130.83;;;39.93;;
7203;SDS011;3643;52.460;13.322;2023-04-15T00:38:37;149.47;;;42.37;;
7203;SDS011;3643;52.460;13.322;2023-04-15T00:41:06;130.40;;;40.00;;
7203;SDS011;3643;52.460;13.322;2023-04-15T00:43:36;145.60;;;40.93;;
7203;SDS011;3643;52.460;13.322;2023-04-15T00:46:06;130.87;;;38.23;;
7203;SDS011;3643;52.460;13.322;2023-04-15T00:48:36;151.70;;;43.57;;
7203;SDS011;3643;52.460;13.322;2023-04-15T00:51:05;147.10;;;42.57;;
7203;SDS011;3643;52.460;13.322;2023-04-15T00:53:33;163.30;;;44.27;;
7203;SDS011;3643;52.460;13.322;2023-04-15T00:56:02;177.53;;;46.40;;
7203;SDS011;3643;52.460;13.322;2023-04-15T00:58:32;149.63;;;41.07;;
7203;SDS011;3643;52.460;13.322;2023-04-15T01:01:00;110.07;;;35.07;;
7203;SDS011;3643;52.460;13.322;2023-04-15T01:03:31;147.13;;;42.73;;
7203;SDS011;3643;52.460;13.322;2023-04-15T01:06:00;143.33;;;43.13;;
7203;SDS011;3643;52.460;13.322;2023-04-15T01:08:29;155.87;;;43.57;;
7203;SDS011;3643;52.460;13.322;2023-04-15T01:10:58;150.43;;;43.30;;
7203;SDS011;3643;52.460;13.322;2023-04-15T01:13:29;159.77;;;45.53;;
7203;SDS011;3643;52.460;13.322;2023-04-15T01:15:57;176.90;;;47.03;;
7203;SDS011;3643;52.460;13.322;2023-04-15T01:18:26;178.03;;;48.37;;
7203;SDS011;3643;52.460;13.322;2023-04-15T01:20:56;184.07;;;47.53;;
7203;SDS011;3643;52.460;13.322;2023-04-15T01:23:24;184.77;;;46.90;;
7203;SDS011;3643;52.460;13.322;2023-04-15T01:25:54;169.73;;;47.13;;
7203;SDS011;3643;52.460;13.322;2023-04-15T01:28:24;195.60;;;49.10;;
7203;SDS011;3643;52.460;13.322;2023-04-15T01:31:04;174.23;;;48.00;;
7203;SDS011;3643;52.460;13.322;2023-04-15T01:33:36;186.00;;;47.83;;
7203;SDS011;3643;52.460;13.322;2023-04-15T01:36:05;186.97;;;46.10;;
7203;SDS011;3643;52.460;13.322;2023-04-15T01:38:35;201.57;;;49.13;;
7203;SDS011;3643;52.460;13.322;2023-04-15T01:41:05;185.60;;;48.47;;
7203;SDS011;3643;52.460;13.322;2023-04-15T01:43:34;176.07;;;49.27;;
7203;SDS011;3643;52.460;13.322;2023-04-15T01:46:03;216.10;;;50.67;;
7203;SDS011;3643;52.460;13.322;2023-04-15T01:48:32;156.60;;;43.23;;
7203;SDS011;3643;52.460;13.322;2023-04-15T01:51:01;180.77;;;44.20;;
7203;SDS011;3643;52.460;13.322;2023-04-15T01:53:29;209.83;;;51.57;;
7203;SDS011;3643;52.460;13.322;2023-04-15T01:55:58;194.53;;;49.40;;
7203;SDS011;3643;52.460;13.322;2023-04-15T01:58:29;224.73;;;53.53;;
7203;SDS011;3643;52.460;13.322;2023-04-15T02:00:58;203.53;;;49.23;;
7203;SDS011;3643;52.460;13.322;2023-04-15T02:03:29;181.97;;;47.83;;
7203;SDS011;3643;52.460;13.322;2023-04-15T02:05:58;171.27;;;45.23;;
7203;SDS011;3643;52.460;13.322;2023-04-15T02:08:27;215.37;;;49.63;;
7203;SDS011;3643;52.460;13.322;2023-04-15T02:10:55;161.90;;;43.57;;
7203;SDS011;3643;52.460;13.322;2023-04-15T02:13:24;156.57;;;45.87;;
7203;SDS011;3643;52.460;13.322;2023-04-15T02:15:54;184.93;;;45.73;;
7203;SDS011;3643;52.460;13.322;2023-04-15T02:18:22;195.90;;;50.03;;
7203;SDS011;3643;52.460;13.322;2023-04-15T02:20:51;175.90;;;46.03;;
7203;SDS011;3643;52.460;13.322;2023-04-15T02:23:19;203.00;;;50.13;;
7203;SDS011;3643;52.460;13.322;2023-04-15T02:25:48;175.87;;;47.03;;
7203;SDS011;3643;52.460;13.322;2023-04-15T02:28:19;153.37;;;45.50;;
7203;SDS011;3643;52.460;13.322;2023-04-15T02:30:48;163.10;;;44.70;;
7203;SDS011;3643;52.460;13.322;2023-04-15T02:33:21;187.97;;;46.97;;
7203;SDS011;3643;52.460;13.322;2023-04-15T02:35:50;173.47;;;46.03;;
7203;SDS011;3643;52.460;13.322;2023-04-15T02:38:18;193.10;;;49.00;;
7203;SDS011;3643;52.460;13.322;2023-04-15T02:40:47;173.33;;;42.43;;
7203;SDS011;3643;52.460;13.322;2023-04-15T02:43:16;186.47;;;45.40;;
7203;SDS011;3643;52.460;13.322;2023-04-15T02:45:45;133.83;;;40.13;;
7203;SDS011;3643;52.460;13.322;2023-04-15T02:48:14;193.53;;;46.40;;
7203;SDS011;3643;52.460;13.322;2023-04-15T02:50:46;195.40;;;50.77;;
7203;SDS011;3643;52.460;13.322;2023-04-15T02:53:14;176.70;;;44.47;;
7203;SDS011;3643;52.460;13.322;2023-04-15T02:55:43;201.30;;;47.57;;
7203;SDS011;3643;52.460;13.322;2023-04-15T02:58:11;173.73;;;43.73;;
7203;SDS011;3643;52.460;13.322;2023-04-15T03:00:40;167.30;;;43.13;;
7203;SDS011;3643;52.460;13.322;2023-04-15T03:03:08;172.80;;;44.30;;
7203;SDS011;3643;52.460;13.322;2023-04-15T03:05:37;165.17;;;43.40;;
7203;SDS011;3643;52.460;13.322;2023-04-15T03:08:07;157.27;;;43.27;;
7203;SDS011;3643;52.460;13.322;2023-04-15T03:10:36;172.27;;;43.53;;
7203;SDS011;3643;52.460;13.322;2023-04-15T03:13:04;162.50;;;44.57;;
7203;SDS011;3643;52.460;13.322;2023-04-15T03:15:33;170.10;;;44.10;;
7203;SDS011;3643;52.460;13.322;2023-04-15T03:18:01;138.00;;;42.50;;
7203;SDS011;3643;52.460;13.322;2023-04-15T03:20:30;173.97;;;43.77;;
7203;SDS011;3643;52.460;13.322;2023-04-15T03:22:58;135.57;;;42.63;;
7203;SDS011;3643;52.460;13.322;2023-04-15T03:25:31;165.80;;;45.47;;
7203;SDS011;3643;52.460;13.322;2023-04-15T03:28:00;146.83;;;42.90;;
7203;SDS011;3643;52.460;13.322;2023-04-15T03:30:30;151.90;;;40.67;;
7203;SDS011;3643;52.460;13.322;2023-04-15T03:32:58;153.07;;;42.80;;
7203;SDS011;3643;52.460;13.322;2023-04-15T03:35:27;172.27;;;43.77;;
7203;SDS011;3643;52.460;13.322;2023-04-15T03:37:56;210.80;;;47.83;;
7203;SDS011;3643;52.460;13.322;2023-04-15T03:40:24;140.13;;;42.03;;
7203;SDS011;3643;52.460;13.322;2023-04-15T03:42:54;173.03;;;47.10;;
7203;SDS011;3643;52.460;13.322;2023-04-15T03:45:23;182.33;;;44.20;;
7203;SDS011;3643;52.460;13.322;2023-04-15T03:47:52;143.13;;;41.00;;
7203;SDS011;3643;52.460;13.322;2023-04-15T03:50:20;171.60;;;42.70;;
7203;SDS011;3643;52.460;13.322;2023-04-15T03:52:49;156.97;;;43.03;;
7203;SDS011;3643;52.460;13.322;2023-04-15T03:55:18;124.07;;;39.07;;
7203;SDS011;3643;52.460;13.322;2023-04-15T03:57:46;164.00;;;44.20;;
7203;SDS011;3643;52.460;13.322;2023-04-15T04:00:16;165.47;;;45.13;;
7203;SDS011;3643;52.460;13.322;2023-04-15T04:02:45;161.27;;;45.40;;
7203;SDS011;3643;52.460;13.322;2023-04-15T04:05:14;148.13;;;41.20;;
7203;SDS011;3643;52.460;13.322;2023-04-15T04:07:42;143.20;;;40.50;;
7203;SDS011;3643;52.460;13.322;2023-04-15T04:10:10;152.43;;;39.37;;
7203;SDS011;3643;52.460;13.322;2023-04-15T04:12:39;144.30;;;40.13;;
7203;SDS011;3643;52.460;13.322;2023-04-15T04:15:07;133.00;;;39.03;;
7203;SDS011;3643;52.460;13.322;2023-04-15T04:17:37;145.93;;;39.37;;
7203;SDS011;3643;52.460;13.322;2023-04-15T04:20:06;134.80;;;38.73;;
7203;SDS011;3643;52.460;13.322;2023-04-15T04:22:36;117.47;;;36.23;;
7203;SDS011;3643;52.460;13.322;2023-04-15T04:25:05;119.10;;;36.00;;
7203;SDS011;3643;52.460;13.322;2023-04-15T04:27:35;128.83;;;39.17;;
7203;SDS011;3643;52.460;13.322;2023-04-15T04:30:04;114.67;;;35.77;;
7203;SDS011;3643;52.460;13.322;2023-04-15T04:32:33;142.97;;;38.70;;
7203;SDS011;3643;52.460;13.322;2023-04-15T04:35:03;140.10;;;38.37;;
7203;SDS011;3643;52.460;13.322;2023-04-15T04:37:32;90.97;;;32.23;;
7203;SDS011;3643;52.460;13.322;2023-04-15T04:40:00;110.10;;;35.30;;
7203;SDS011;3643;52.460;13.322;2023-04-15T04:42:28;102.00;;;35.07;;
7203;SDS011;3643;52.460;13.322;2023-04-15T04:44:57;112.70;;;38.47;;
7203;SDS011;3643;52.460;13.322;2023-04-15T04:47:25;121.60;;;37.33;;
7203;SDS011;3643;52.460;13.322;2023-04-15T04:49:53;119.27;;;35.50;;
7203;SDS011;3643;52.460;13.322;2023-04-15T04:52:23;118.43;;;35.10;;
7203;SDS011;3643;52.460;13.322;2023-04-15T04:54:51;88.63;;;32.67;;
7203;SDS011;3643;52.460;13.322;2023-04-15T04:57:19;101.20;;;33.37;;
7203;SDS011;3643;52.460;13.322;2023-04-15T04:59:47;85.37;;;32.90;;
7203;SDS011;3643;52.460;13.322;2023-04-15T05:02:16;92.50;;;32.90;;
7203;SDS011;3643;52.460;13.322;2023-04-15T05:04:44;105.83;;;33.70;;
7203;SDS011;3643;52.460;13.322;2023-04-15T05:07:12;74.10;;;29.40;;
7203;SDS011;3643;52.460;13.322;2023-04-15T05:09:42;104.87;;;34.60;;
7203;SDS011;3643;52.460;13.322;2023-04-15T05:12:11;69.93;;;29.63;;
7203;SDS011;3643;52.460;13.322;2023-04-15T05:14:40;75.53;;;30.73;;
7203;SDS011;3643;52.460;13.322;2023-04-15T05:17:08;80.53;;;30.27;;
7203;SDS011;3643;52.460;13.322;2023-04-15T05:19:37;74.53;;;28.77;;
7203;SDS011;3643;52.460;13.322;2023-04-15T05:22:06;65.80;;;27.73;;
7203;SDS011;3643;52.460;13.322;2023-04-15T05:24:34;85.80;;;31.83;;
7203;SDS011;3643;52.460;13.322;2023-04-15T05:27:04;59.37;;;26.13;;
7203;SDS011;3643;52.460;13.322;2023-04-15T05:29:33;71.47;;;28.67;;
7203;SDS011;3643;52.460;13.322;2023-04-15T05:32:02;58.73;;;27.03;;
7203;SDS011;3643;52.460;13.322;2023-04-15T05:34:30;61.33;;;29.13;;
7203;SDS011;3643;52.460;13.322;2023-04-15T05:36:58;72.60;;;28.63;;
7203;SDS011;3643;52.460;13.322;2023-04-15T05:39:26;62.23;;;26.53;;
7203;SDS011;3643;52.460;13.322;2023-04-15T05:41:54;58.37;;;26.53;;
7203;SDS011;3643;52.460;13.322;2023-04-15T05:44:25;58.40;;;25.43;;
7203;SDS011;3643;52.460;13.322;2023-04-15T05:46:53;52.70;;;24.00;;
7203;SDS011;3643;52.460;13.322;2023-04-15T05:49:22;59.37;;;25.97;;
7203;SDS011;3643;52.460;13.322;2023-04-15T05:51:50;48.13;;;24.70;;
7203;SDS011;3643;52.460;13.322;2023-04-15T05:54:19;42.50;;;22.90;;
7203;SDS011;3643;52.460;13.322;2023-04-15T05:56:48;43.07;;;23.33;;
7203;SDS011;3643;52.460;13.322;2023-04-15T05:59:16;45.57;;;23.27;;
7203;SDS011;3643;52.460;13.322;2023-04-15T06:01:46;43.27;;;21.47;;
7203;SDS011;3643;52.460;13.322;2023-04-15T06:04:14;39.60;;;21.50;;
7203;SDS011;3643;52.460;13.322;2023-04-15T06:06:43;40.17;;;22.03;;
7203;SDS011;3643;52.460;13.322;2023-04-15T06:09:11;36.40;;;21.70;;
7203;SDS011;3643;52.460;13.322;2023-04-15T06:11:39;43.43;;;21.77;;
7203;SDS011;3643;52.460;13.322;2023-04-15T06:14:07;40.37;;;21.53;;
7203;SDS011;3643;52.460;13.322;2023-04-15T06:16:36;34.73;;;21.17;;
7203;SDS011;3643;52.460;13.322;2023-04-15T06:19:05;36.83;;;20.80;;
7203;SDS011;3643;52.460;13.322;2023-04-15T06:21:34;33.13;;;19.97;;
7203;SDS011;3643;52.460;13.322;2023-04-15T06:24:02;30.57;;;18.63;;
7203;SDS011;3643;52.460;13.322;2023-04-15T06:26:30;33.10;;;18.80;;
7203;SDS011;3643;52.460;13.322;2023-04-15T06:28:59;30.23;;;18.80;;
7203;SDS011;3643;52.460;13.322;2023-04-15T06:31:27;28.73;;;18.70;;
7203;SDS011;3643;52.460;13.322;2023-04-15T06:33:56;25.87;;;17.90;;
7203;SDS011;3643;52.460;13.322;2023-04-15T06:36:26;28.60;;;17.60;;
7203;SDS011;3643;52.460;13.322;2023-04-15T06:38:54;25.20;;;17.57;;
7203;SDS011;3643;52.460;13.322;2023-04-15T06:41:22;26.57;;;17.53;;
7203;SDS011;3643;52.460;13.322;2023-04-15T06:43:51;26.67;;;17.70;;
7203;SDS011;3643;52.460;13.322;2023-04-15T06:46:19;25.63;;;17.03;;
7203;SDS011;3643;52.460;13.322;2023-04-15T06:48:48;23.47;;;16.73;;
7203;SDS011;3643;52.460;13.322;2023-04-15T06:51:17;22.77;;;15.77;;
7203;SDS011;3643;52.460;13.322;2023-04-15T06:53:47;22.50;;;16.33;;
7203;SDS011;3643;52.460;13.322;2023-04-15T06:56:15;18.90;;;14.80;;
7203;SDS011;3643;52.460;13.322;2023-04-15T06:58:43;23.83;;;15.57;;
7203;SDS011;3643;52.460;13.322;2023-04-15T07:01:12;21.57;;;14.20;;
7203;SDS011;3643;52.460;13.322;2023-04-15T07:03:40;18.40;;;13.63;;
7203;SDS011;3643;52.460;13.322;2023-04-15T07:06:09;19.33;;;14.63;;
7203;SDS011;3643;52.460;13.322;2023-04-15T07:08:37;19.57;;;14.63;;
7203;SDS011;3643;52.460;13.322;2023-04-15T07:11:07;18.27;;;13.63;;
7203;SDS011;3643;52.460;13.322;2023-04-15T07:13:35;19.00;;;13.60;;
7203;SDS011;3643;52.460;13.322;2023-04-15T07:16:04;16.93;;;13.43;;
7203;SDS011;3643;52.460;13.322;2023-04-15T07:18:32;16.77;;;13.43;;
7203;SDS011;3643;52.460;13.322;2023-04-15T07:21:00;17.97;;;13.50;;
7203;SDS011;3643;52.460;13.322;2023-04-15T07:23:29;18.63;;;13.87;;
7203;SDS011;3643;52.460;13.322;2023-04-15T07:25:57;16.10;;;13.33;;
7203;SDS011;3643;52.460;13.322;2023-04-15T07:28:27;16.90;;;13.93;;
7203;SDS011;3643;52.460;13.322;2023-04-15T07:30:56;17.63;;;13.80;;
7203;SDS011;3643;52.460;13.322;2023-04-15T07:33:24;17.33;;;13.77;;
7203;SDS011;3643;52.460;13.322;2023-04-15T07:35:52;17.17;;;13.60;;
7203;SDS011;3643;52.460;13.322;2023-04-15T07:38:21;17.13;;;13.87;;
7203;SDS011;3643;52.460;13.322;2023-04-15T07:40:49;16.10;;;13.93;;
7203;SDS011;3643;52.460;13.322;2023-04-15T07:43:18;18.07;;;14.17;;
7203;SDS011;3643;52.460;13.322;2023-04-15T07:45:48;15.40;;;12.63;;
7203;SDS011;3643;52.460;13.322;2023-04-15T07:48:16;16.90;;;14.37;;
7203;SDS011;3643;52.460;13.322;2023-04-15T07:50:44;18.93;;;14.73;;
7203;SDS011;3643;52.460;13.322;2023-04-15T07:53:12;19.67;;;15.03;;
7203;SDS011;3643;52.460;13.322;2023-04-15T07:55:41;18.10;;;14.93;;
7203;SDS011;3643;52.460;13.322;2023-04-15T07:58:09;18.87;;;14.73;;
7203;SDS011;3643;52.460;13.322;2023-04-15T08:00:37;19.77;;;15.30;;
7203;SDS011;3643;52.460;13.322;2023-04-15T08:03:07;18.30;;;15.80;;
7203;SDS011;3643;52.460;13.322;2023-04-15T08:05:36;21.23;;;16.00;;
7203;SDS011;3643;52.460;13.322;2023-04-15T08:08:05;19.03;;;16.33;;
7203;SDS011;3643;52.460;13.322;2023-04-15T08:10:33;21.77;;;16.53;;
7203;SDS011;3643;52.460;13.322;2023-04-15T08:13:01;20.10;;;15.53;;
7203;SDS011;3643;52.460;13.322;2023-04-15T08:15:30;22.57;;;15.30;;
7203;SDS011;3643;52.460;13.322;2023-04-15T08:17:58;20.67;;;15.07;;
7203;SDS011;3643;52.460;13.322;2023-04-15T08:20:28;21.07;;;16.60;;
7203;SDS011;3643;52.460;13.322;2023-04-15T08:22:56;19.23;;;16.97;;
7203;SDS011;3643;52.460;13.322;2023-04-15T08:25:24;18.87;;;16.83;;
7203;SDS011;3643;52.460;13.322;2023-04-15T08:27:54;19.63;;;16.03;;
7203;SDS011;3643;52.460;13.322;2023-04-15T08:30:22;20.27;;;16.03;;
7203;SDS011;3643;52.460;13.322;2023-04-15T08:32:51;20.87;;;16.47;;
7203;SDS011;3643;52.460;13.322;2023-04-15T08:35:19;21.87;;;16.00;;
7203;SDS011;3643;52.460;13.322;2023-04-15T08:37:49;18.93;;;15.77;;
7203;SDS011;3643;52.460;13.322;2023-04-15T08:40:17;20.63;;;16.83;;
7203;SDS011;3643;52.460;13.322;2023-04-15T08:42:47;19.47;;;16.30;;
7203;SDS011;3643;52.460;13.322;2023-04-15T08:45:19;20.80;;;16.90;;
7203;SDS011;3643;52.460;13.322;2023-04-15T08:47:49;23.27;;;18.27;;
7203;SDS011;3643;52.460;13.322;2023-04-15T08:50:23;22.90;;;18.00;;
7203;SDS011;3643;52.460;13.322;2023-04-15T08:52:55;21.83;;;17.53;;
7203;SDS011;3643;52.460;13.322;2023-04-15T08:55:25;24.20;;;18.20;;
7203;SDS011;3643;52.460;13.322;2023-04-15T08:57:59;23.20;;;19.33;;
7203;SDS011;3643;52.460;13.322;2023-04-15T09:00:28;23.70;;;18.40;;
7203;SDS011;3643;52.460;13.322;2023-04-15T09:02:58;22.17;;;17.53;;
7203;SDS011;3643;52.460;13.322;2023-04-15T09:05:29;21.57;;;17.23;;
7203;SDS011;3643;52.460;13.322;2023-04-15T09:08:00;21.03;;;16.37;;
7203;SDS011;3643;52.460;13.322;2023-04-15T09:10:29;22.23;;;17.93;;
7203;SDS011;3643;52.460;13.322;2023-04-15T09:12:58;21.23;;;17.47;;
7203;SDS011;3643;52.460;13.322;2023-04-15T09:15:26;22.70;;;17.30;;
7203;SDS011;3643;52.460;13.322;2023-04-15T09:17:55;19.80;;;16.83;;
7203;SDS011;3643;52.460;13.322;2023-04-15T09:20:24;21.57;;;17.83;;
7203;SDS011;3643;52.460;13.322;2023-04-15T09:22:52;22.47;;;17.50;;
7203;SDS011;3643;52.460;13.322;2023-04-15T09:25:25;21.97;;;17.27;;
7203;SDS011;3643;52.460;13.322;2023-04-15T09:28:00;21.83;;;17.63;;
7203;SDS011;3643;52.460;13.322;2023-04-15T09:30:29;20.87;;;17.87;;
7203;SDS011;3643;52.460;13.322;2023-04-15T09:32:58;25.73;;;18.00;;
7203;SDS011;3643;52.460;13.322;2023-04-15T09:35:28;20.23;;;15.93;;
7203;SDS011;3643;52.460;13.322;2023-04-15T09:38:01;22.77;;;18.10;;
7203;SDS011;3643;52.460;13.322;2023-04-15T09:40:32;23.00;;;17.83;;
7203;SDS011;3643;52.460;13.322;2023-04-15T09:43:02;19.53;;;16.77;;
7203;SDS011;3643;52.460;13.322;2023-04-15T09:45:30;21.70;;;17.33;;
7203;SDS011;3643;52.460;13.322;2023-04-15T09:48:14;19.40;;;16.20;;
7203;SDS011;3643;52.460;13.322;2023-04-15T09:50:43;20.43;;;17.13;;
7203;SDS011;3643;52.460;13.322;2023-04-15T09:53:14;19.80;;;16.90;;
7203;SDS011;3643;52.460;13.322;2023-04-15T09:55:48;22.83;;;17.50;;
7203;SDS011;3643;52.460;13.322;2023-04-15T09:58:17;22.03;;;17.77;;
7203;SDS011;3643;52.460;13.322;2023-04-15T10:00:47;21.87;;;17.43;;
7203;SDS011;3643;52.460;13.322;2023-04-15T10:03:17;22.47;;;18.07;;
7203;SDS011;3643;52.460;13.322;2023-04-15T10:05:48;20.70;;;17.17;;
7203;SDS011;3643;52.460;13.322;2023-04-15T10:08:18;21.83;;;17.43;;
7203;SDS011;3643;52.460;13.322;2023-04-15T10:10:49;18.80;;;16.23;;
7203;SDS011;3643;52.460;13.322;2023-04-15T10:13:18;20.30;;;16.43;;
7203;SDS011;3643;52.460;13.322;2023-04-15T10:15:49;18.23;;;15.53;;
7203;SDS011;3643;52.460;13.322;2023-04-15T10:18:19;19.57;;;15.10;;
7203;SDS011;3643;52.460;13.322;2023-04-15T10:20:48;21.27;;;16.13;;
7203;SDS011;3643;52.460;13.322;2023-04-15T10:23:17;17.73;;;14.97;;
7203;SDS011;3643;52.460;13.322;2023-04-15T10:25:48;17.30;;;15.43;;
7203;SDS011;3643;52.460;13.322;2023-04-15T10:28:19;17.60;;;14.90;;
7203;SDS011;3643;52.460;13.322;2023-04-15T10:30:48;18.07;;;14.33;;
7203;SDS011;3643;52.460;13.322;2023-04-15T10:33:17;19.20;;;14.50;;
7203;SDS011;3643;52.460;13.322;2023-04-15T10:35:48;17.30;;;14.70;;
7203;SDS011;3643;52.460;13.322;2023-04-15T10:38:31;18.97;;;15.30;;
7203;SDS011;3643;52.460;13.322;2023-04-15T10:41:14;16.77;;;14.53;;
7203;SDS011;3643;52.460;13.322;2023-04-15T10:43:47;18.07;;;14.53;;
7203;SDS011;3643;52.460;13.322;2023-04-15T10:46:17;18.43;;;14.67;;
7203;SDS011;3643;52.460;13.322;2023-04-15T10:48:48;18.93;;;14.77;;
7203;SDS011;3643;52.460;13.322;2023-04-15T10:51:25;16.30;;;14.50;;
7203;SDS011;3643;52.460;13.322;2023-04-15T10:53:55;18.70;;;15.07;;
7203;SDS011;3643;52.460;13.322;2023-04-15T10:56:28;19.40;;;15.57;;
7203;SDS011;3643;52.460;13.322;2023-04-15T10:58:58;17.47;;;14.33;;
7203;SDS011;3643;52.460;13.322;2023-04-15T11:07:36;16.40;;;14.17;;
7203;SDS011;3643;52.460;13.322;2023-04-15T11:13:26;15.93;;;13.57;;
7203;SDS011;3643;52.460;13.322;2023-04-15T11:16:00;18.63;;;14.93;;
7203;SDS011;3643;52.460;13.322;2023-04-15T11:18:30;20.60;;;15.10;;
7203;SDS011;3643;52.460;13.322;2023-04-15T11:21:00;18.50;;;15.03;;
7203;SDS011;3643;52.460;13.322;2023-04-15T11:23:31;19.23;;;15.67;;
7203;SDS011;3643;52.460;13.322;2023-04-15T11:26:01;19.53;;;16.40;;
7203;SDS011;3643;52.460;13.322;2023-04-15T11:28:36;21.50;;;16.33;;
7203;SDS011;3643;52.460;13.322;2023-04-15T11:31:07;22.53;;;17.07;;
7203;SDS011;3643;52.460;13.322;2023-04-15T11:33:38;21.20;;;16.23;;
7203;SDS011;3643;52.460;13.322;2023-04-15T11:36:13;20.50;;;16.40;;
7203;SDS011;3643;52.460;13.322;2023-04-15T11:38:42;19.90;;;15.83;;
7203;SDS011;3643;52.460;13.322;2023-04-15T11:41:12;20.37;;;16.70;;
7203;SDS011;3643;52.460;13.322;2023-04-15T11:43:41;21.50;;;15.70;;
7203;SDS011;3643;52.460;13.322;2023-04-15T11:46:10;24.10;;;16.47;;
7203;SDS011;3643;52.460;13.322;2023-04-15T11:48:40;23.17;;;17.70;;
7203;SDS011;3643;52.460;13.322;2023-04-15T11:51:10;19.63;;;16.53;;
7203;SDS011;3643;52.460;13.322;2023-04-15T11:53:40;20.40;;;15.37;;
7203;SDS011;3643;52.460;13.322;2023-04-15T11:56:10;20.30;;;15.83;;
7203;SDS011;3643;52.460;13.322;2023-04-15T11:58:46;21.00;;;17.17;;
7203;SDS011;3643;52.460;13.322;2023-04-15T12:01:16;22.13;;;17.07;;
7203;SDS011;3643;52.460;13.322;2023-04-15T12:03:50;20.83;;;16.10;;
7203;SDS011;3643;52.460;13.322;2023-04-15T12:06:19;22.77;;;17.57;;
7203;SDS011;3643;52.460;13.322;2023-04-15T12:08:49;24.37;;;17.30;;
7203;SDS011;3643;52.460;13.322;2023-04-15T12:11:29;22.57;;;17.93;;
7203;SDS011;3643;52.460;13.322;2023-04-15T12:14:01;23.87;;;17.60;;
7203;SDS011;3643;52.460;13.322;2023-04-15T12:16:32;25.50;;;16.43;;
7203;SDS011;3643;52.460;13.322;2023-04-15T12:19:15;22.03;;;17.70;;
7203;SDS011;3643;52.460;13.322;2023-04-15T12:21:45;22.10;;;16.30;;
7203;SDS011;3643;52.460;13.322;2023-04-15T12:24:14;24.00;;;17.13;;
7203;SDS011;3643;52.460;13.322;2023-04-15T12:26:47;22.67;;;17.53;;
7203;SDS011;3643;52.460;13.322;2023-04-15T12:29:17;24.77;;;18.00;;
7203;SDS011;3643;52.460;13.322;2023-04-15T12:31:51;23.70;;;18.53;;
7203;SDS011;3643;52.460;13.322;2023-04-15T12:34:30;21.60;;;17.23;;
7203;SDS011;3643;52.460;13.322;2023-04-15T12:37:00;24.63;;;17.60;;
7203;SDS011;3643;52.460;13.322;2023-04-15T12:39:30;18.83;;;16.47;;
7203;SDS011;3643;52.460;13.322;2023-04-15T12:42:02;18.57;;;16.20;;
7203;SDS011;3643;52.460;13.322;2023-04-15T12:44:32;19.03;;;16.43;;
7203;SDS011;3643;52.460;13.322;2023-04-15T12:47:01;19.67;;;16.10;;
7203;SDS011;3643;52.460;13.322;2023-04-15T12:49:30;24.00;;;17.60;;
7203;SDS011;3643;52.460;13.322;2023-04-15T12:52:00;19.47;;;15.60;;
7203;SDS011;3643;52.460;13.322;2023-04-15T12:54:29;20.97;;;16.33;;
7203;SDS011;3643;52.460;13.322;2023-04-15T12:56:58;17.83;;;14.67;;
7203;SDS011;3643;52.460;13.322;2023-04-15T12:59:33;17.50;;;14.60;;
7203;SDS011;3643;52.460;13.322;2023-04-15T13:02:02;16.80;;;14.40;;
7203;SDS011;3643;52.460;13.322;2023-04-15T13:04:30;18.60;;;14.17;;
7203;SDS011;3643;52.460;13.322;2023-04-15T13:06:59;19.60;;;14.97;;
7203;SDS011;3643;52.460;13.322;2023-04-15T13:09:28;15.97;;;13.13;;
7203;SDS011;3643;52.460;13.322;2023-04-15T13:11:56;16.97;;;13.50;;
7203;SDS011;3643;52.460;13.322;2023-04-15T13:14:24;16.23;;;13.47;;
7203;SDS011;3643;52.460;13.322;2023-04-15T13:16:55;18.90;;;13.60;;
7203;SDS011;3643;52.460;13.322;2023-04-15T13:19:23;14.77;;;13.10;;
7203;SDS011;3643;52.460;13.322;2023-04-15T13:21:51;14.10;;;11.90;;
7203;SDS011;3643;52.460;13.322;2023-04-15T13:24:20;18.43;;;14.47;;
7203;SDS011;3643;52.460;13.322;2023-04-15T13:26:48;17.83;;;13.77;;
7203;SDS011;3643;52.460;13.322;2023-04-15T13:29:17;15.10;;;13.00;;
7203;SDS011;3643;52.460;13.322;2023-04-15T13:31:45;15.50;;;13.00;;
7203;SDS011;3643;52.460;13.322;2023-04-15T13:34:15;15.77;;;12.70;;
7203;SDS011;3643;52.460;13.322;2023-04-15T13:36:43;15.10;;;12.47;;
7203;SDS011;3643;52.460;13.322;2023-04-15T13:39:12;15.40;;;12.03;;
7203;SDS011;3643;52.460;13.322;2023-04-15T13:41:40;14.37;;;11.77;;
7203;SDS011;3643;52.460;13.322;2023-04-15T13:44:08;14.90;;;11.70;;
7203;SDS011;3643;52.460;13.322;2023-04-15T13:46:37;15.33;;;12.40;;
7203;SDS011;3643;52.460;13.322;2023-04-15T13:49:07;16.60;;;12.00;;
7203;SDS011;3643;52.460;13.322;2023-04-15T13:51:37;14.17;;;11.63;;
7203;SDS011;3643;52.460;13.322;2023-04-15T13:54:05;15.37;;;11.87;;
7203;SDS011;3643;52.460;13.322;2023-04-15T13:56:34;13.43;;;12.03;;
7203;SDS011;3643;52.460;13.322;2023-04-15T13:59:02;15.53;;;12.20;;
7203;SDS011;3643;52.460;13.322;2023-04-15T14:01:32;14.07;;;12.03;;
7203;SDS011;3643;52.460;13.322;2023-04-15T14:04:01;14.27;;;11.97;;
7203;SDS011;3643;52.460;13.322;2023-04-15T14:06:30;14.20;;;11.83;;
7203;SDS011;3643;52.460;13.322;2023-04-15T14:09:00;18.20;;;12.80;;
7203;SDS011;3643;52.460;13.322;2023-04-15T14:11:29;13.83;;;11.30;;
7203;SDS011;3643;52.460;13.322;2023-04-15T14:13:58;14.93;;;12.43;;
7203;SDS011;3643;52.460;13.322;2023-04-15T14:16:26;13.77;;;12.03;;
7203;SDS011;3643;52.460;13.322;2023-04-15T14:18:54;16.27;;;12.60;;
7203;SDS011;3643;52.460;13.322;2023-04-15T14:21:23;13.90;;;11.13;;
7203;SDS011;3643;52.460;13.322;2023-04-15T14:23:53;16.20;;;12.40;;
7203;SDS011;3643;52.460;13.322;2023-04-15T14:26:23;13.17;;;11.47;;
7203;SDS011;3643;52.460;13.322;2023-04-15T14:28:51;16.60;;;13.33;;
7203;SDS011;3643;52.460;13.322;2023-04-15T14:31:19;14.63;;;11.87;;
7203;SDS011;3643;52.460;13.322;2023-04-15T14:33:48;16.77;;;12.13;;
7203;SDS011;3643;52.460;13.322;2023-04-15T14:36:16;15.63;;;12.27;;
7203;SDS011;3643;52.460;13.322;2023-04-15T14:38:45;17.60;;;12.00;;
7203;SDS011;3643;52.460;13.322;2023-04-15T14:41:14;13.53;;;11.17;;
7203;SDS011;3643;52.460;13.322;2023-04-15T14:43:44;14.00;;;11.57;;
7203;SDS011;3643;52.460;13.322;2023-04-15T14:46:12;15.27;;;11.40;;
7203;SDS011;3643;52.460;13.322;2023-04-15T14:48:41;16.93;;;12.27;;
7203;SDS011;3643;52.460;13.322;2023-04-15T14:51:09;15.10;;;12.20;;
7203;SDS011;3643;52.460;13.322;2023-04-15T14:53:37;15.93;;;11.23;;